Time;durP1;ratioP1;P1;durP2;ratioP2;P2;SDS_P1;SDS_P2;PMS_P1;PMS_P2;Temp;Humidity;BMP_temperature;BMP_pressure;BME280_temperature;BME280_humidity;BME280_pressure;Samples;Min_cycle;Max_cycle;Signal;HPM_P1;HPM_P2
2022/02/06 00:01:00;;;;;;;9.53;5.12;;;;;;;0.53;100.00;99144.83;1690000;84;21006;-57
2022/02/06 00:03:27;;;;;;;10.05;5.15;;;;;;;0.53;100.00;99145.65;1684890;84;21082;-57
2022/02/06 00:05:53;;;;;;;10.28;5.20;;;;;;;0.55;100.00;99156.13;1682216;84;21009;-57
2022/02/06 00:08:21;;;;;;;9.25;5.33;;;;;;;0.55;100.00;99152.11;1684874;84;21091;-57
2022/02/06 00:10:48;;;;;;;10.65;5.37;;;;;;;0.54;100.00;99153.95;1716832;81;21069;-58
2022/02/06 00:13:14;;;;;;;11.38;5.92;;;;;;;0.54;100.00;99159.31;1720157;82;21095;-58
2022/02/06 00:15:41;;;;;;;;;;;;;;;0.52;100.00;99149.88;1735539;82;21504;-58
2022/02/06 00:18:07;;;;;;;12.28;5.40;;;;;;;0.50;100.00;99151.42;1717660;82;20142;-58
2022/02/06 00:20:46;;;;;;;11.78;5.83;;;;;;;0.50;100.00;99148.74;1711988;81;21592;-58
2022/02/06 00:23:09;;;;;;;11.88;5.30;;;;;;;0.51;100.00;99142.36;1717240;82;21056;-58
2022/02/06 00:28:37;;;;;;;10.20;4.87;;;;;;;0.55;100.00;99139.54;1722886;82;21138;-57
2022/02/06 00:31:00;;;;;;;9.73;4.83;;;;;;;0.55;100.00;99142.73;1709101;82;21075;-57
2022/02/06 00:33:53;;;;;;;9.90;4.72;;;;;;;0.54;100.00;99145.10;1712362;82;21116;-58
2022/02/06 00:35:59;;;;;;;9.95;5.10;;;;;;;0.56;100.00;99140.36;1708255;82;21036;-57
2022/02/06 00:41:37;;;;;;;9.65;5.08;;;;;;;0.57;100.00;99150.84;1723448;82;20968;-57
2022/02/06 00:43:20;;;;;;;10.65;4.95;;;;;;;0.61;100.00;99147.19;1714610;82;21074;-58
2022/02/06 00:45:46;;;;;;;12.13;5.53;;;;;;;0.59;100.00;99146.61;1719978;82;20996;-58
2022/02/06 00:48:18;;;;;;;10.78;5.00;;;;;;;0.60;100.00;99142.38;1712035;82;21065;-58
2022/02/06 00:50:46;;;;;;;8.93;4.65;;;;;;;0.61;100.00;99144.00;1691270;84;21467;-58
2022/02/06 00:53:16;;;;;;;9.20;4.70;;;;;;;0.62;100.00;99134.93;1729078;82;21066;-58
2022/02/06 00:55:39;;;;;;;9.93;4.75;;;;;;;0.65;100.00;99134.48;1725261;82;21037;-58
2022/02/06 00:58:05;;;;;;;10.00;4.70;;;;;;;0.66;100.00;99132.11;1697435;83;21162;-58
2022/02/06 01:00:31;;;;;;;13.58;5.33;;;;;;;0.68;100.00;99132.69;1695327;83;21577;-58
2022/02/06 01:02:58;;;;;;;8.83;4.92;;;;;;;0.69;100.00;99128.16;1688816;84;21722;-58
2022/02/06 01:05:24;;;;;;;11.57;4.85;;;;;;;0.69;100.00;99128.98;1706154;84;21578;-59
2022/02/06 01:07:53;;;;;;;8.30;4.42;;;;;;;0.71;100.00;99140.83;1714377;83;21110;-58
2022/02/06 01:10:20;;;;;;;9.53;4.70;;;;;;;0.73;100.00;99136.88;1722701;82;21087;-58
2022/02/06 01:12:54;;;;;;;;;;;;;;;0.73;100.00;99136.88;1717329;82;21115;-58
2022/02/06 01:15:19;;;;;;;9.65;4.92;;;;;;;0.70;100.00;99138.66;1731239;82;20099;-58
2022/02/06 01:17:53;;;;;;;10.48;5.35;;;;;;;0.70;100.00;99138.66;1727569;82;21091;-58
2022/02/06 01:20:22;;;;;;;12.55;5.28;;;;;;;0.72;100.00;99137.91;1714607;82;21614;-58
2022/02/06 01:23:00;;;;;;;9.38;4.85;;;;;;;0.70;100.00;99148.04;1736632;82;21072;-58
2022/02/06 01:25:31;;;;;;;8.63;4.47;;;;;;;0.72;100.00;99146.46;1725883;82;21067;-57
2022/02/06 01:28:05;;;;;;;10.80;5.08;;;;;;;0.77;100.00;99143.95;1715902;82;21110;-58
2022/02/06 01:30:41;;;;;;;11.88;4.87;;;;;;;0.74;100.00;99137.19;1728230;82;21696;-57
2022/02/06 01:32:59;;;;;;;10.50;4.47;;;;;;;0.74;100.00;99139.04;1716496;82;21055;-57
2022/02/06 01:35:39;;;;;;;9.43;4.45;;;;;;;0.78;100.00;99138.34;1716693;82;21025;-57
2022/02/06 01:40:40;;;;;;;9.35;4.78;;;;;;;0.73;100.00;99131.52;1726600;82;20968;-58
2022/02/06 01:43:05;;;;;;;8.20;4.80;;;;;;;0.74;100.00;99142.55;1725520;82;21071;-57
2022/02/06 01:45:52;;;;;;;9.58;4.50;;;;;;;0.71;100.00;99144.84;1719036;82;21004;-58
2022/02/06 02:17:44;;;;;;;8.23;4.72;;;;;;;0.73;100.00;99140.07;1729890;82;21021;-59
2022/02/06 02:30:52;;;;;;;8.85;4.78;;;;;;;0.74;100.00;99151.09;1735779;82;21534;-58
2022/02/06 02:46:37;;;;;;;10.23;5.15;;;;;;;0.76;100.00;99158.38;1739137;82;20967;-58
2022/02/06 02:49:00;;;;;;;9.05;4.97;;;;;;;0.71;100.00;99152.34;1735331;82;21517;-59
2022/02/06 02:51:33;;;;;;;11.45;5.58;;;;;;;0.66;100.00;99151.38;1713006;82;21545;-58
2022/02/06 02:54:01;;;;;;;10.43;5.12;;;;;;;0.68;100.00;99156.80;1719968;82;21023;-58
2022/02/06 02:59:08;;;;;;;14.13;5.55;;;;;;;0.69;100.00;99150.92;1741062;82;21479;-58
2022/02/06 03:01:35;;;;;;;10.18;5.08;;;;;;;0.62;100.00;99143.48;1716057;82;21098;-59
2022/02/06 03:03:56;;;;;;;10.65;5.30;;;;;;;0.60;100.00;99149.08;1726910;82;21027;-59
2022/02/06 03:06:22;;;;;;;10.13;5.60;;;;;;;0.60;100.00;99153.09;1736803;82;21099;-58
2022/02/06 03:08:51;;;;;;;9.55;5.30;;;;;;;0.61;100.00;99156.56;1717411;82;21027;-58
2022/02/06 03:11:17;;;;;;;10.70;5.90;;;;;;;0.55;100.00;99156.95;1726433;82;21040;-59
2022/02/06 03:16:25;;;;;;;10.85;5.47;;;;;;;0.54;100.00;99155.30;1728990;82;21092;-58
2022/02/06 03:19:03;;;;;;;11.33;5.50;;;;;;;0.57;100.00;99161.55;1725159;82;21127;-58
2022/02/06 03:21:28;;;;;;;;;;;;;;;0.56;100.00;99155.91;1723287;82;21574;-58
2022/02/06 03:23:56;;;;;;;12.28;5.75;;;;;;;0.52;100.00;99154.71;1718063;82;20113;-58
2022/02/06 03:26:24;;;;;;;8.40;5.05;;;;;;;0.48;100.00;99155.67;1715435;82;21083;-58
2022/02/06 03:28:51;;;;;;;9.80;5.30;;;;;;;0.54;100.00;99158.49;1719908;82;21024;-58
2022/02/06 03:31:17;;;;;;;;;;;;;;;0.56;100.00;99153.23;1714169;82;21120;-58
2022/02/06 03:33:47;;;;;;;11.53;5.65;;;;;;;0.60;100.00;99156.29;1689479;84;20112;-58
2022/02/06 03:36:12;;;;;;;10.00;5.20;;;;;;;0.51;100.00;99153.06;1713441;82;21000;-59
2022/02/06 03:38:39;;;;;;;9.60;5.50;;;;;;;0.52;100.00;99159.25;1731505;82;21078;-59
2022/02/06 03:41:09;;;;;;;10.35;4.87;;;;;;;0.57;100.00;99159.42;1712797;82;20998;-58
2022/02/06 03:43:49;;;;;;;10.98;5.42;;;;;;;0.60;100.00;99160.31;1690271;84;20996;-59
2022/02/06 03:46:15;;;;;;;10.13;5.22;;;;;;;0.61;100.00;99164.09;1712484;82;21047;-59
2022/02/06 03:48:52;;;;;;;10.03;5.60;;;;;;;0.59;100.00;99170.72;1712895;82;21075;-59
2022/02/06 03:51:37;;;;;;;9.40;5.22;;;;;;;0.59;100.00;99160.00;1719951;82;21684;-58
2022/02/06 03:53:59;;;;;;;12.18;5.22;;;;;;;0.63;100.00;99160.69;1717688;82;21107;-59
2022/02/06 03:56:27;;;;;;;9.15;5.03;;;;;;;0.65;100.00;99161.78;1710300;82;21130;-58
2022/02/06 03:58:55;;;;;;;8.88;5.00;;;;;;;0.65;100.00;99169.30;1732188;82;21067;-58
2022/02/06 04:01:22;;;;;;;10.50;4.87;;;;;;;0.61;100.00;99164.60;1719259;82;21020;-59
2022/02/06 04:03:48;;;;;;;10.28;5.15;;;;;;;0.64;100.00;99170.34;1722105;82;21043;-58
2022/02/06 04:06:16;;;;;;;10.25;5.58;;;;;;;0.67;100.00;99172.60;1738385;82;20964;-58
2022/02/06 04:08:43;;;;;;;10.00;5.25;;;;;;;0.65;100.00;99169.82;1731204;82;20952;-58
2022/02/06 04:11:20;;;;;;;9.95;4.70;;;;;;;0.63;100.00;99171.40;1715665;82;21521;-59
2022/02/06 04:16:38;;;;;;;11.33;5.03;;;;;;;0.68;100.00;99172.05;1650740;86;21067;-59
2022/02/06 04:19:06;;;;;;;11.57;5.65;;;;;;;0.69;100.00;99173.70;1691403;82;21035;-58
2022/02/06 04:21:24;;;;;;;14.53;5.47;;;;;;;0.68;100.00;99168.03;1706860;82;21557;-58
2022/02/06 04:23:50;;;;;;;11.38;5.08;;;;;;;0.63;100.00;99168.72;1685138;84;21626;-58
2022/02/06 04:26:17;;;;;;;8.55;5.67;;;;;;;0.65;100.00;99168.48;1715983;82;21613;-59
2022/02/06 04:28:43;;;;;;;12.95;5.60;;;;;;;0.68;100.00;99172.88;1733431;82;21510;-58
2022/02/06 04:31:09;;;;;;;9.10;4.85;;;;;;;0.69;100.00;99179.05;1713153;82;21606;-58
2022/02/06 04:33:36;;;;;;;11.90;5.60;;;;;;;0.65;100.00;99173.33;1726129;82;21565;-59
2022/02/06 04:36:05;;;;;;;9.10;5.35;;;;;;;0.64;100.00;99176.24;1734621;82;21542;-58
2022/02/06 04:38:45;;;;;;;9.60;5.30;;;;;;;0.65;100.00;99179.20;1720484;82;21617;-58
2022/02/06 04:41:14;;;;;;;11.20;5.87;;;;;;;0.65;100.00;99178.68;1714169;82;21036;-59
2022/02/06 04:51:54;;;;;;;11.18;5.35;;;;;;;0.63;100.00;99171.91;1731524;82;20988;-58
2022/02/06 04:54:14;;;;;;;9.93;5.58;;;;;;;0.61;100.00;99171.30;1725965;82;21008;-59
2022/02/06 05:20:55;;;;;;;13.40;6.28;;;;;;;0.56;100.00;99193.92;1696273;82;21007;-57
2022/02/06 05:23:37;;;;;;;11.80;6.62;;;;;;;0.57;100.00;99195.58;1711198;82;21043;-57
2022/02/06 05:28:29;;;;;;;13.20;7.10;;;;;;;0.61;100.00;99196.23;1695372;82;21058;-59
2022/02/06 05:30:56;;;;;;;13.38;6.80;;;;;;;0.60;100.00;99190.59;1708029;82;21106;-58
2022/02/06 05:33:18;;;;;;;11.40;6.45;;;;;;;0.61;100.00;99198.09;1726080;82;21577;-59
2022/02/06 05:35:45;;;;;;;12.73;6.78;;;;;;;0.61;100.00;99192.73;1741316;82;21558;-57
2022/02/06 05:38:11;;;;;;;10.10;6.47;;;;;;;0.60;100.00;99200.48;1713766;82;21609;-58
2022/02/06 05:40:38;;;;;;;;;;;;;;;0.60;100.00;99203.16;1721534;82;21067;-57
2022/02/06 05:43:05;;;;;;;10.82;6.12;;;;;;;0.63;100.00;99206.22;1725569;82;20124;-58
2022/02/06 05:45:32;;;;;;;8.98;5.47;;;;;;;0.60;100.00;99208.01;1707754;82;21066;-59
2022/02/06 05:47:58;;;;;;;9.95;6.40;;;;;;;0.57;100.00;99206.29;1707740;82;21050;-58
2022/02/06 05:50:25;;;;;;;10.53;5.67;;;;;;;0.57;100.00;99208.97;1710273;84;21079;-58
2022/02/06 05:52:51;;;;;;;;;;;;;;;0.63;100.00;99208.08;1736769;82;21298;-57
2022/02/06 05:55:18;;;;;;;9.70;6.30;;;;;;;0.64;100.00;99197.67;1712496;82;20109;-57
2022/02/06 05:57:45;;;;;;;11.85;6.75;;;;;;;0.53;100.00;99198.39;1714754;84;21158;-58
2022/02/06 06:00:13;;;;;;;10.05;6.17;;;;;;;0.53;100.00;99194.38;1724070;82;21114;-57
2022/02/06 06:02:39;;;;;;;10.25;6.40;;;;;;;0.58;100.00;99195.85;1671713;84;21039;-57
2022/02/06 06:05:06;;;;;;;9.50;6.53;;;;;;;0.61;100.00;99195.41;1726132;82;21013;-57
2022/02/06 06:07:33;;;;;;;11.68;7.03;;;;;;;0.58;100.00;99202.55;1716401;82;21047;-58
2022/02/06 06:09:59;;;;;;;11.12;6.67;;;;;;;0.59;100.00;99202.86;1724637;82;21039;-58
2022/02/06 06:14:30;;;;;;;11.00;7.08;;;;;;;0.69;100.00;99195.95;1781491;79;22895;-58
2022/02/06 06:16:57;;;;;;;11.33;6.95;;;;;;;0.62;100.00;99197.05;1730845;81;21089;-58
2022/02/06 06:19:26;;;;;;;11.25;6.92;;;;;;;0.61;100.00;99205.60;1694996;85;21633;-57
2022/02/06 06:21:57;;;;;;;11.90;6.97;;;;;;;0.65;100.00;99215.36;1670271;86;21146;-57
2022/02/06 06:24:26;;;;;;;11.35;6.85;;;;;;;0.69;100.00;99209.34;1670275;86;21093;-57
2022/02/06 06:26:53;;;;;;;10.23;6.62;;;;;;;0.72;100.00;99214.26;1671236;85;21683;-57
2022/02/06 06:29:20;;;;;;;10.08;6.70;;;;;;;0.75;100.00;99205.78;1670112;86;21106;-57
2022/02/06 06:31:48;;;;;;;11.83;6.33;;;;;;;0.73;100.00;99211.06;1669118;84;21102;-57
2022/02/06 06:34:14;;;;;;;9.83;6.20;;;;;;;0.80;100.00;99213.16;1666080;86;21093;-58
2022/02/06 06:36:42;;;;;;;12.25;7.42;;;;;;;0.87;100.00;99221.95;1670246;86;21192;-57
2022/02/06 06:39:09;;;;;;;12.35;6.65;;;;;;;0.85;100.00;99210.10;1696038;84;21064;-58
2022/02/06 06:41:36;;;;;;;11.50;6.55;;;;;;;0.84;100.00;99210.34;1670156;84;21103;-57
2022/02/06 06:44:04;;;;;;;11.35;6.40;;;;;;;0.88;100.00;99215.05;1670648;86;21114;-57
2022/02/06 06:46:31;;;;;;;10.45;6.70;;;;;;;0.96;100.00;99217.92;1640429;86;21134;-57
2022/02/06 06:48:57;;;;;;;9.20;5.95;;;;;;;0.98;100.00;99214.00;1664663;86;21078;-58
2022/02/06 06:51:24;;;;;;;14.25;6.58;;;;;;;0.94;100.00;99216.00;1670417;86;21105;-58
2022/02/06 06:53:52;;;;;;;9.78;5.67;;;;;;;0.92;100.00;99220.23;1656212;84;21109;-57
2022/02/06 06:56:30;;;;;;;9.43;5.53;;;;;;;0.99;100.00;99218.84;1670582;84;21123;-58
2022/02/06 06:58:50;;;;;;;10.23;5.87;;;;;;;1.05;100.00;99214.45;1659328;85;21117;-58
2022/02/06 07:03:50;;;;;;;12.43;5.95;;;;;;;1.02;100.00;99218.40;1682317;85;21061;-57
2022/02/06 07:06:17;;;;;;;12.05;5.80;;;;;;;1.11;100.00;99213.55;1672971;84;21113;-58
2022/02/06 07:08:44;;;;;;;9.50;6.17;;;;;;;1.15;100.00;99210.20;1665519;86;21114;-58
2022/02/06 07:11:11;;;;;;;12.60;6.15;;;;;;;1.13;100.00;99216.84;1670685;86;21055;-58
2022/02/06 07:13:39;;;;;;;9.90;6.00;;;;;;;1.16;100.00;99215.87;1663862;85;21076;-58
2022/02/06 07:16:06;;;;;;;;;;;;;;;1.26;100.00;99205.95;1715762;83;21554;-57
2022/02/06 07:18:32;;;;;;;9.53;5.97;;;;;;;1.34;100.00;99210.50;1712391;84;20444;-57
2022/02/06 07:20:59;;;;;;;10.13;5.53;;;;;;;1.29;100.00;99209.52;1678156;84;21535;-57
2022/02/06 07:23:26;;;;;;;10.88;5.20;;;;;;;1.33;100.00;99208.86;1705683;83;20995;-57
2022/02/06 07:25:58;;;;;;;8.80;5.55;;;;;;;1.41;100.00;99204.53;1698907;83;21004;-57
2022/02/06 07:28:22;;;;;;;9.40;5.90;;;;;;;1.48;100.00;99209.81;1711041;83;21588;-58
2022/02/06 07:30:48;;;;;;;10.28;6.35;;;;;;;1.47;100.00;99209.51;1711507;84;21510;-57
2022/02/06 07:33:19;;;;;;;10.78;6.45;;;;;;;1.45;100.00;99208.92;1715340;83;21629;-57
2022/02/06 07:35:43;;;;;;;11.35;5.90;;;;;;;1.49;100.00;99205.55;1675578;85;21035;-58
2022/02/06 07:38:11;;;;;;;11.45;5.95;;;;;;;1.56;100.00;99210.03;1656652;86;21150;-57
2022/02/06 07:40:38;;;;;;;10.55;5.70;;;;;;;1.56;100.00;99202.77;1650217;86;21080;-58
2022/02/06 07:43:04;;;;;;;12.75;6.78;;;;;;;1.57;100.00;99211.64;1653078;87;21540;-57
2022/02/06 07:45:35;;;;;;;9.25;5.00;;;;;;;1.64;100.00;99216.40;1664151;85;21395;-58
2022/02/06 07:48:05;;;;;;;13.38;6.15;;;;;;;1.69;100.00;99216.55;1711419;82;21067;-57
2022/02/06 07:50:32;;;;;;;9.75;5.33;;;;;;;1.68;100.00;99217.07;1662783;85;21036;-57
2022/02/06 07:52:58;;;;;;;11.65;5.75;;;;;;;1.68;100.00;99213.56;1707380;83;21542;-58
2022/02/06 07:55:25;;;;;;;10.13;5.42;;;;;;;1.78;100.00;99211.16;1677055;85;21031;-58
2022/02/06 07:57:52;;;;;;;12.88;5.90;;;;;;;1.88;100.00;99214.09;1652799;87;21221;-58
2022/02/06 08:00:19;;;;;;;9.95;5.25;;;;;;;1.88;100.00;99216.27;1652951;87;21036;-57
2022/02/06 08:02:46;;;;;;;10.05;6.12;;;;;;;1.90;100.00;99218.73;1629255;87;21099;-57
2022/02/06 08:05:16;;;;;;;11.78;6.08;;;;;;;1.98;100.00;99225.13;1652912;87;21040;-58
2022/02/06 08:07:42;;;;;;;10.28;5.72;;;;;;;2.06;100.00;99226.64;1717306;82;21028;-58
2022/02/06 08:10:09;;;;;;;9.23;5.62;;;;;;;2.00;100.00;99221.68;1711547;84;21533;-57
2022/02/06 08:12:44;;;;;;;9.33;5.40;;;;;;;1.95;100.00;99210.28;1671003;85;21554;-58
2022/02/06 08:15:06;;;;;;;8.08;5.05;;;;;;;1.96;100.00;99212.44;1646758;86;21012;-58
2022/02/06 08:17:38;;;;;;;9.93;5.33;;;;;;;2.05;100.00;99221.83;1652960;86;21549;-58
2022/02/06 08:20:11;;;;;;;11.03;6.50;;;;;;;2.07;100.00;99222.92;1652839;86;21006;-58
2022/02/06 08:22:38;;;;;;;11.68;5.50;;;;;;;2.04;100.00;99216.67;1710283;84;21098;-58
2022/02/06 08:25:05;;;;;;;;;;;;;;;2.08;100.00;99212.48;1711919;84;21518;-58
2022/02/06 08:27:33;;;;;;;10.40;5.05;;;;;;;2.13;100.00;99215.28;1709656;82;20129;-58
2022/02/06 08:30:00;;;;;;;9.55;5.40;;;;;;;2.06;100.00;99216.73;1666161;85;21020;-57
2022/02/06 08:32:27;;;;;;;9.23;5.20;;;;;;;2.11;100.00;99214.19;1711384;82;21112;-59
2022/02/06 08:34:55;;;;;;;9.80;4.92;;;;;;;2.19;100.00;99204.98;1676456;85;21035;-58
2022/02/06 08:37:22;;;;;;;10.60;5.25;;;;;;;2.25;100.00;99206.22;1710746;82;21528;-57
2022/02/06 08:39:49;;;;;;;10.60;4.90;;;;;;;2.28;100.00;99205.75;1710293;83;21041;-58
2022/02/06 08:42:15;;;;;;;10.78;5.00;;;;;;;2.30;100.00;99193.45;1672868;84;21010;-57
2022/02/06 08:44:44;;;;;;;;;;;;;;;2.33;100.00;99203.20;1655115;87;21095;-58
2022/02/06 08:47:12;;;;;;;10.30;4.95;;;;;;;2.40;100.00;99196.38;1652947;85;20110;-58
2022/02/06 08:49:39;;;;;;;9.55;4.50;;;;;;;2.53;100.00;99205.55;1706138;84;21027;-57
2022/02/06 08:52:08;;;;;;;8.88;4.70;;;;;;;2.63;100.00;99203.10;1710614;82;21051;-58
2022/02/06 08:54:36;;;;;;;7.92;4.53;;;;;;;2.67;100.00;99202.11;1711145;84;21092;-58
2022/02/06 08:57:14;;;;;;;9.93;4.90;;;;;;;2.69;100.00;99215.63;1711334;82;21135;-57
2022/02/06 08:59:36;;;;;;;9.08;5.47;;;;;;;2.77;100.00;99198.30;1710127;83;21031;-57
2022/02/06 09:02:03;;;;;;;10.20;4.53;;;;;;;2.80;100.00;99196.52;1700177;82;21477;-57
2022/02/06 09:04:29;;;;;;;9.10;4.97;;;;;;;2.85;100.00;99189.89;1687433;84;21586;-57
2022/02/06 09:07:00;;;;;;;10.13;5.08;;;;;;;2.87;100.00;99191.28;1712777;83;21136;-58
2022/02/06 09:09:26;;;;;;;9.48;4.90;;;;;;;2.90;100.00;99196.22;1704655;84;21090;-57
2022/02/06 09:11:52;;;;;;;10.35;4.60;;;;;;;2.90;100.00;99188.67;1711063;82;21094;-58
2022/02/06 09:14:21;;;;;;;11.12;5.80;;;;;;;2.89;100.00;99181.66;1709242;83;21586;-58
2022/02/06 09:16:48;;;;;;;9.18;4.47;;;;;;;2.92;100.00;99175.28;1710654;82;21068;-57
2022/02/06 09:19:15;;;;;;;10.38;5.53;;;;;;;2.89;100.00;99177.10;1677198;85;21063;-58
2022/02/06 09:21:42;;;;;;;11.25;5.42;;;;;;;2.87;100.00;99177.05;1646435;87;21109;-58
2022/02/06 09:24:10;;;;;;;11.22;6.37;;;;;;;2.84;100.00;99164.88;1674893;85;21058;-58
2022/02/06 09:26:37;;;;;;;12.05;7.10;;;;;;;2.80;100.00;99166.39;1695615;84;21106;-59
2022/02/06 09:29:04;;;;;;;;;;;;;;;2.83;100.00;99163.79;1706865;84;21045;-58
2022/02/06 09:31:31;;;;;;;10.32;6.40;;;;;;;2.91;100.00;99156.69;1711472;84;20395;-58
2022/02/06 09:36:25;;;;;;;8.98;4.72;;;;;;;2.95;100.00;99155.16;1709266;83;21079;-59
2022/02/06 09:38:51;;;;;;;9.73;4.45;;;;;;;2.97;100.00;99150.38;1703320;84;21039;-59
2022/02/06 09:41:19;;;;;;;10.93;5.33;;;;;;;2.99;100.00;99150.95;1702591;84;21083;-58
2022/02/06 09:43:45;;;;;;;9.00;4.60;;;;;;;3.05;100.00;99151.89;1707504;84;21593;-59
2022/02/06 09:46:13;;;;;;;9.25;4.40;;;;;;;3.09;100.00;99153.02;1677523;85;21597;-59
2022/02/06 09:48:40;;;;;;;8.83;4.03;;;;;;;3.10;100.00;99144.73;1625823;87;21030;-59
2022/02/06 09:51:06;;;;;;;;;;;;;;;3.14;100.00;99143.73;1679908;85;21023;-59
2022/02/06 09:53:33;;;;;;;8.38;3.55;;;;;;;3.32;100.00;99143.56;1644479;87;20416;-59
2022/02/06 09:56:08;;;;;;;10.95;4.97;;;;;;;3.65;100.00;99150.38;1649583;85;20956;-59
2022/02/06 09:59:18;;;;;;;9.10;4.80;;;;;;;4.05;100.00;99146.25;1649954;87;21056;-58
2022/02/06 10:01:02;;;;;;;8.93;4.12;;;;;;;4.38;100.00;99144.09;1618291;88;21908;-59
2022/02/06 10:03:28;;;;;;;;;;;;;;;4.95;100.00;99143.31;1643260;87;21489;-61
2022/02/06 10:05:57;;;;;;;7.08;3.55;;;;;;;5.41;100.00;99133.90;1651555;86;20140;-61
2022/02/06 10:08:32;;;;;;;7.00;3.35;;;;;;;5.70;100.00;99129.91;1651023;87;21055;-61
2022/02/06 10:11:07;;;;;;;7.42;3.80;;;;;;;6.16;100.00;99121.72;1673295;84;21076;-60
2022/02/06 10:13:34;;;;;;;8.93;3.92;;;;;;;6.73;100.00;99116.42;1709467;83;21025;-60
2022/02/06 10:16:00;;;;;;;8.03;3.00;;;;;;;7.30;100.00;99115.06;1711637;84;20964;-60
2022/02/06 10:18:28;;;;;;;7.60;3.30;;;;;;;7.72;100.00;99105.42;1711342;84;20960;-60
2022/02/06 10:20:55;;;;;;;6.12;3.08;;;;;;;7.54;100.00;99098.37;1711657;84;21053;-60
2022/02/06 10:23:37;;;;;;;6.35;3.37;;;;;;;7.13;100.00;99100.93;1677085;84;21709;-60
2022/02/06 10:26:11;;;;;;;8.68;3.45;;;;;;;6.92;100.00;99096.50;1710837;82;21483;-60
2022/02/06 10:31:07;;;;;;;7.60;3.83;;;;;;;6.67;100.00;99095.02;1682910;84;20975;-61
2022/02/06 10:33:48;;;;;;;8.70;3.62;;;;;;;7.10;100.00;99098.76;1710587;83;20956;-61
2022/02/06 10:36:20;;;;;;;10.80;3.87;;;;;;;7.28;100.00;99085.29;1676015;85;21008;-61
2022/02/06 10:38:47;;;;;;;10.30;4.40;;;;;;;6.85;100.00;99087.81;1649340;87;21047;-60
2022/02/06 10:41:19;;;;;;;7.55;3.35;;;;;;;6.36;100.00;99094.02;1651324;87;21080;-60
2022/02/06 10:44:06;;;;;;;7.58;3.45;;;;;;;6.28;100.00;99097.19;1651263;87;21044;-59
2022/02/06 10:46:55;;;;;;;9.70;3.90;;;;;;;6.36;100.00;99092.13;1646595;85;21059;-59
2022/02/06 10:49:19;;;;;;;9.23;4.35;;;;;;;6.34;100.00;99090.77;1649204;87;21047;-60
2022/02/06 10:52:01;;;;;;;7.92;3.67;;;;;;;6.06;100.00;99095.94;1650118;87;21151;-61
2022/02/06 10:54:34;;;;;;;9.15;4.47;;;;;;;5.74;100.00;99098.59;1630431;87;21079;-59
2022/02/06 10:57:14;;;;;;;7.25;3.85;;;;;;;5.31;100.00;99096.00;1647919;85;21563;-59
2022/02/06 10:59:48;;;;;;;11.20;4.62;;;;;;;5.09;100.00;99091.97;1651014;87;21044;-59
2022/02/06 11:02:37;;;;;;;7.75;4.15;;;;;;;4.88;100.00;99094.95;1651263;85;21052;-59
2022/02/06 11:05:14;;;;;;;8.65;4.00;;;;;;;4.74;100.00;99088.83;1651223;87;21469;-60
2022/02/06 11:07:36;;;;;;;8.40;4.03;;;;;;;4.58;100.00;99082.92;1648408;85;21559;-59
2022/02/06 11:10:12;;;;;;;7.92;4.15;;;;;;;4.48;100.00;99086.30;1651371;87;21027;-59
2022/02/06 11:12:44;;;;;;;10.03;3.87;;;;;;;4.35;100.00;99088.83;1651110;87;21079;-60
2022/02/06 11:15:41;;;;;;;11.30;4.90;;;;;;;4.24;100.00;99081.65;1655814;86;21067;-59
2022/02/06 11:18:20;;;;;;;9.40;4.90;;;;;;;4.20;100.00;99076.99;1632322;86;21052;-60
2022/02/06 11:21:02;;;;;;;;;;;;;;;4.09;100.00;99063.08;1644962;86;21028;-60
2022/02/06 11:23:43;;;;;;;10.13;5.17;;;;;;;4.14;100.00;99084.72;1667449;85;20100;-59
2022/02/06 11:26:17;;;;;;;11.08;5.35;;;;;;;4.01;100.00;99067.81;1643284;86;20939;-59
2022/02/06 11:28:45;;;;;;;10.35;4.62;;;;;;;3.98;100.00;99063.45;1689673;83;21550;-58
2022/02/06 11:31:16;;;;;;;12.05;5.22;;;;;;;4.03;100.00;99057.34;1706335;83;20991;-59
2022/02/06 11:33:43;;;;;;;11.83;4.72;;;;;;;4.08;100.00;99066.83;1691700;83;21518;-60
2022/02/06 11:36:15;;;;;;;10.23;4.80;;;;;;;4.16;100.00;99063.72;1691759;83;20975;-59
2022/02/06 11:45:06;;;;;;;11.55;4.83;;;;;;;4.18;100.00;99065.10;1686210;83;21018;-59
2022/02/06 11:47:43;;;;;;;;;;;;;;;4.12;100.00;99061.23;1677644;83;21000;-60
2022/02/06 11:50:11;;;;;;;12.75;5.20;;;;;;;4.12;100.00;99055.84;1705582;83;20132;-60
2022/02/06 11:52:58;;;;;;;11.03;5.25;;;;;;;4.04;100.00;99051.69;1688338;83;21101;-60
2022/02/06 11:55:37;;;;;;;13.62;5.72;;;;;;;4.08;100.00;99051.48;1684304;85;21070;-60
2022/02/06 11:58:29;;;;;;;11.55;5.12;;;;;;;4.21;100.00;99051.16;1664406;85;21633;-62
2022/02/06 12:01:16;;;;;;;10.35;5.37;;;;;;;4.33;100.00;99053.73;1653229;85;21577;-62
2022/02/06 12:04:23;;;;;;;12.68;5.28;;;;;;;4.40;100.00;99051.16;1680314;85;21063;-63
2022/02/06 12:06:52;;;;;;;9.50;4.33;;;;;;;4.40;100.00;99052.50;1656995;86;21043;-63
2022/02/06 12:09:28;;;;;;;11.03;5.17;;;;;;;4.28;100.00;99041.56;1699448;83;21515;-62
2022/02/06 12:12:08;;;;;;;9.55;5.08;;;;;;;4.23;100.00;99044.98;1692252;83;21521;-63
2022/02/06 12:14:44;;;;;;;9.73;5.85;;;;;;;4.11;100.00;99040.21;1694200;83;21603;-61
2022/02/06 12:20:11;;;;;;;11.00;5.45;;;;;;;4.07;100.00;99034.24;1701773;83;21008;-61
2022/02/06 12:22:46;;;;;;;10.48;5.12;;;;;;;4.05;100.00;99033.66;1707832;83;21039;-60
2022/02/06 12:25:36;;;;;;;11.30;4.95;;;;;;;4.00;100.00;99033.86;1671509;84;21020;-60
2022/02/06 12:28:21;;;;;;;12.18;5.97;;;;;;;3.96;100.00;99022.50;1649094;86;21519;-60
2022/02/06 12:30:49;;;;;;;10.05;5.85;;;;;;;3.92;100.00;99020.01;1713511;83;21012;-60
2022/02/06 12:33:29;;;;;;;10.53;5.42;;;;;;;3.89;100.00;99026.71;1687649;83;21059;-60
2022/02/06 12:38:37;;;;;;;13.32;5.75;;;;;;;3.79;100.00;99026.52;1707652;84;20976;-61
2022/02/06 12:41:26;;;;;;;10.63;5.90;;;;;;;3.67;100.00;99022.30;1706150;83;21063;-60
2022/02/06 12:43:55;;;;;;;10.75;6.03;;;;;;;3.59;100.00;99025.37;1707989;83;21393;-61
2022/02/06 12:46:22;;;;;;;10.88;6.20;;;;;;;3.47;100.00;99028.16;1698078;83;21323;-60
2022/02/06 12:48:49;;;;;;;9.53;5.30;;;;;;;3.41;100.00;99029.11;1694286;83;20999;-60
2022/02/06 12:51:27;;;;;;;11.50;5.92;;;;;;;3.38;100.00;99018.31;1709953;83;20992;-63
2022/02/06 12:54:12;;;;;;;11.68;5.75;;;;;;;3.39;100.00;99015.92;1709633;83;20996;-60
2022/02/06 12:56:36;;;;;;;12.05;6.08;;;;;;;3.34;100.00;99007.75;1697557;83;21035;-60
2022/02/06 12:59:03;;;;;;;11.60;5.83;;;;;;;3.33;100.00;99008.80;1679701;83;21513;-60
2022/02/06 13:01:39;;;;;;;9.38;4.90;;;;;;;3.32;100.00;99013.09;1702901;84;21126;-60
2022/02/06 13:04:05;;;;;;;10.55;5.40;;;;;;;3.35;100.00;99009.39;1700527;83;20965;-60
2022/02/06 13:06:38;;;;;;;10.05;4.83;;;;;;;3.30;100.00;99003.08;1660686;84;21024;-61
2022/02/06 13:09:16;;;;;;;11.15;5.50;;;;;;;3.24;100.00;99008.91;1678349;84;20992;-59
2022/02/06 13:11:50;;;;;;;12.68;5.20;;;;;;;3.27;100.00;99006.27;1648178;85;21080;-58
2022/02/06 13:14:25;;;;;;;9.25;4.28;;;;;;;3.28;100.00;99010.06;1645039;85;21027;-58
2022/02/06 13:16:57;;;;;;;10.15;4.87;;;;;;;3.30;100.00;99012.50;1649302;86;21590;-57
2022/02/06 13:24:52;;;;;;;12.90;5.22;;;;;;;3.28;100.00;98999.31;1702616;81;21150;-59
2022/02/06 13:38:00;;;;;;;9.13;4.30;;;;;;;3.19;100.00;98990.54;1672545;84;21548;-60
2022/02/06 13:40:32;;;;;;;7.70;3.83;;;;;;;3.13;100.00;98995.52;1668481;84;21506;-61
2022/02/06 13:43:14;;;;;;;8.38;4.05;;;;;;;3.13;100.00;98982.89;1669747;85;21543;-61
2022/02/06 13:45:38;;;;;;;8.73;3.92;;;;;;;3.07;100.00;98983.87;1706970;83;21049;-58
2022/02/06 13:48:06;;;;;;;10.88;4.15;;;;;;;3.03;100.00;98990.78;1711422;82;21080;-61
2022/02/06 13:50:40;;;;;;;10.25;3.60;;;;;;;2.99;100.00;98982.38;1710679;82;21115;-59
2022/02/06 13:53:09;;;;;;;9.60;4.50;;;;;;;2.99;100.00;98983.73;1702681;83;21067;-59
2022/02/06 13:56:01;;;;;;;9.48;4.30;;;;;;;2.94;100.00;98988.20;1675934;84;21027;-58
2022/02/06 13:58:27;;;;;;;12.55;4.60;;;;;;;2.86;100.00;98993.44;1704106;83;21047;-58
2022/02/06 14:01:05;;;;;;;10.80;5.08;;;;;;;2.79;100.00;98986.56;1708171;82;21692;-58
2022/02/06 14:03:48;;;;;;;11.60;4.97;;;;;;;2.76;100.00;98989.20;1685999;83;21542;-58
2022/02/06 14:06:23;;;;;;;8.30;3.75;;;;;;;2.73;100.00;98991.01;1708884;82;21059;-59